Time;durP1;ratioP1;P1;durP2;ratioP2;P2;SDS_P1;SDS_P2;PMS_P1;PMS_P2;Temp;Humidity;BMP_temperature;BMP_pressure;BME280_temperature;BME280_humidity;BME280_pressure;Samples;Min_cycle;Max_cycle;Signal;HPM_P1;HPM_P2
2023/01/14 00:01:17;;;;;;;371.58;165.45;;;3.80;99.90;;;;;;5075662;28;20111;-56
2023/01/14 00:03:44;;;;;;;355.88;159.02;;;3.80;99.90;;;;;;5075759;28;20417;-56
2023/01/14 00:06:12;;;;;;;345.73;159.32;;;3.80;99.90;;;;;;5075553;28;20098;-56
2023/01/14 00:08:38;;;;;;;351.73;160.05;;;3.80;99.90;;;;;;5075555;28;20033;-56
2023/01/14 00:11:06;;;;;;;364.48;161.57;;;3.80;99.90;;;;;;5075347;28;20080;-56
2023/01/14 00:13:37;;;;;;;324.70;151.45;;;3.80;99.90;;;;;;5075345;28;20460;-56
2023/01/14 00:16:05;;;;;;;328.38;149.48;;;3.70;99.90;;;;;;5075338;28;20036;-56
2023/01/14 00:18:33;;;;;;;326.88;150.45;;;3.70;99.90;;;;;;5070768;28;20032;-56
2023/01/14 00:21:04;;;;;;;306.27;142.75;;;3.60;99.90;;;;;;5055317;28;20024;-56
2023/01/14 00:23:31;;;;;;;321.55;147.88;;;3.60;99.90;;;;;;5055325;28;20474;-56
2023/01/14 00:26:05;;;;;;;342.38;152.88;;;3.60;99.90;;;;;;5055326;28;20032;-56
2023/01/14 00:28:31;;;;;;;355.50;156.73;;;3.60;99.90;;;;;;5055189;28;20040;-56
2023/01/14 00:31:12;;;;;;;361.20;168.38;;;3.60;99.90;;;;;;5063972;28;20037;-56
2023/01/14 00:33:39;;;;;;;339.38;158.57;;;3.50;99.90;;;;;;5074942;28;20037;-56
2023/01/14 00:36:12;;;;;;;347.70;156.23;;;3.60;99.90;;;;;;5075051;28;20029;-56
2023/01/14 00:38:38;;;;;;;409.33;192.35;;;3.60;99.90;;;;;;5073013;28;20040;-56
2023/01/14 00:41:26;;;;;;;362.23;170.35;;;3.70;99.90;;;;;;5074951;28;20028;-56
2023/01/14 00:43:55;;;;;;;261.27;128.05;;;3.80;99.90;;;;;;5073617;28;20064;-56
2023/01/14 00:46:30;;;;;;;242.68;117.95;;;3.80;99.90;;;;;;5074860;28;20036;-56
2023/01/14 00:48:58;;;;;;;219.45;111.25;;;3.80;99.90;;;;;;5075119;28;20198;-56
2023/01/14 00:51:25;;;;;;;227.07;112.90;;;3.70;99.90;;;;;;5074791;28;20063;-56
2023/01/14 00:53:51;;;;;;;223.70;111.05;;;3.70;99.90;;;;;;5073504;28;20386;-56
2023/01/14 00:56:19;;;;;;;213.70;109.15;;;3.60;99.90;;;;;;5074625;28;20028;-56
2023/01/14 00:58:46;;;;;;;229.57;113.80;;;3.60;99.90;;;;;;5074762;28;20025;-56
2023/01/14 01:01:12;;;;;;;255.88;123.93;;;3.50;99.90;;;;;;5074584;28;20035;-56
2023/01/14 01:03:40;;;;;;;236.05;118.35;;;3.70;99.90;;;;;;5073096;28;20091;-56
2023/01/14 01:06:07;;;;;;;276.83;133.15;;;3.60;99.90;;;;;;5073369;28;20611;-56
2023/01/14 01:08:33;;;;;;;319.67;146.38;;;3.70;99.90;;;;;;5074559;28;20052;-56
2023/01/14 01:10:59;;;;;;;324.40;151.88;;;3.60;99.90;;;;;;5074299;28;20051;-56
2023/01/14 01:13:27;;;;;;;359.52;160.05;;;3.50;99.90;;;;;;5074275;28;20079;-56
2023/01/14 01:15:59;;;;;;;372.80;167.10;;;3.50;99.90;;;;;;5074411;28;20421;-56
2023/01/14 01:18:26;;;;;;;377.05;169.52;;;3.60;99.90;;;;;;5070711;28;20044;-56
2023/01/14 01:21:04;;;;;;;391.42;179.75;;;3.50;99.90;;;;;;5069930;28;20033;-56
2023/01/14 01:23:30;;;;;;;395.23;179.93;;;3.50;99.90;;;;;;5069675;28;20033;-56
2023/01/14 01:26:04;;;;;;;385.10;175.45;;;3.50;99.90;;;;;;5054451;28;20101;-56
2023/01/14 01:28:32;;;;;;;344.33;161.43;;;3.40;99.90;;;;;;5069777;28;20039;-56
2023/01/14 01:31:03;;;;;;;333.50;158.77;;;3.40;99.90;;;;;;5063047;28;20115;-56
2023/01/14 01:33:30;;;;;;;339.75;156.27;;;3.40;99.90;;;;;;5074266;28;20107;-56
2023/01/14 01:36:01;;;;;;;391.33;175.93;;;3.40;99.90;;;;;;5074168;28;20028;-56
2023/01/14 01:38:28;;;;;;;388.05;178.98;;;3.50;99.90;;;;;;5074452;28;20048;-56
2023/01/14 01:40:54;;;;;;;371.70;173.80;;;3.40;99.90;;;;;;5074293;28;20095;-56
2023/01/14 01:43:23;;;;;;;439.70;195.05;;;3.30;99.90;;;;;;5074162;28;20393;-56
2023/01/14 01:45:50;;;;;;;483.63;204.35;;;3.30;99.90;;;;;;5074165;28;20033;-56
2023/01/14 01:48:28;;;;;;;365.67;158.43;;;3.40;99.90;;;;;;5074688;28;20077;-56
2023/01/14 01:51:09;;;;;;;312.25;150.23;;;3.60;99.90;;;;;;5078138;28;20024;-56
2023/01/14 01:53:41;;;;;;;329.60;151.35;;;3.50;99.90;;;;;;5078037;28;20081;-56
2023/01/14 01:56:09;;;;;;;;;;;3.50;99.90;;;;;;5077278;28;20103;-56
2023/01/14 01:58:36;;;;;;;340.02;155.00;;;3.50;99.90;;;;;;5077921;28;19935;-56
2023/01/14 02:01:02;;;;;;;330.50;150.95;;;3.40;99.90;;;;;;5060003;28;20048;-56
2023/01/14 02:03:44;;;;;;;333.30;151.20;;;3.50;99.90;;;;;;5060063;28;20036;-56
2023/01/14 02:06:11;;;;;;;351.33;155.38;;;3.50;99.90;;;;;;5076631;28;20032;-56
2023/01/14 02:08:40;;;;;;;374.65;164.02;;;3.40;99.90;;;;;;5076547;28;20162;-56
2023/01/14 02:11:27;;;;;;;377.23;170.95;;;3.50;99.90;;;;;;5059692;28;20449;-56
2023/01/14 02:14:30;;;;;;;496.92;211.38;;;3.50;99.90;;;;;;5077474;28;20508;-56
2023/01/14 02:17:21;;;;;;;458.50;203.27;;;3.70;99.90;;;;;;5077674;28;20039;-56
2023/01/14 02:20:02;;;;;;;516.00;226.15;;;3.70;99.90;;;;;;5062774;28;20025;-56
2023/01/14 02:22:47;;;;;;;454.38;201.10;;;3.60;99.90;;;;;;5057551;28;20047;-56
2023/01/14 02:25:35;;;;;;;452.85;199.55;;;3.60;99.90;;;;;;5056203;28;20032;-56
2023/01/14 02:28:38;;;;;;;474.17;212.32;;;3.70;99.90;;;;;;5057238;28;20076;-56
2023/01/14 02:31:11;;;;;;;495.15;212.25;;;3.80;99.90;;;;;;5075780;28;20508;-56
2023/01/14 02:34:04;;;;;;;526.63;229.05;;;3.80;99.90;;;;;;5075942;28;20039;-56
2023/01/14 02:36:40;;;;;;;505.27;213.35;;;3.80;99.90;;;;;;5076279;28;20551;-56
2023/01/14 02:39:24;;;;;;;489.00;213.98;;;3.90;99.90;;;;;;5075919;28;20101;-56
2023/01/14 02:45:37;;;;;;;438.60;201.00;;;4.00;99.90;;;;;;5075876;28;20401;-56
2023/01/14 02:48:05;;;;;;;389.88;181.25;;;4.00;99.90;;;;;;5059182;28;20035;-56
2023/01/14 02:50:34;;;;;;;;;;;4.00;99.90;;;;;;5077502;28;20036;-56
2023/01/14 02:53:08;;;;;;;410.00;187.20;;;3.80;99.90;;;;;;5076858;28;20297;-56
2023/01/14 02:55:37;;;;;;;443.55;196.05;;;3.70;99.90;;;;;;5059024;28;20454;-56
2023/01/14 02:58:33;;;;;;;412.63;189.00;;;3.80;99.90;;;;;;5058880;28;20025;-56
2023/01/14 03:01:15;;;;;;;358.98;166.52;;;4.00;99.90;;;;;;5035603;28;20086;-56
2023/01/14 03:04:09;;;;;;;361.48;164.70;;;3.90;99.90;;;;;;5058804;28;20043;-56
2023/01/14 03:06:48;;;;;;;429.95;191.65;;;3.90;99.90;;;;;;5058602;28;20028;-56
2023/01/14 03:09:42;;;;;;;445.02;198.07;;;3.90;99.90;;;;;;5075288;28;20032;-56
2023/01/14 03:12:14;;;;;;;;;;;3.90;99.90;;;;;;5059045;28;20036;-56
2023/01/14 03:14:54;;;;;;;409.60;180.13;;;3.80;99.90;;;;;;5075353;28;20354;-56
2023/01/14 03:17:34;;;;;;;400.13;178.93;;;3.80;99.90;;;;;;5076418;28;20033;-56
2023/01/14 03:20:21;;;;;;;454.80;199.98;;;3.80;99.90;;;;;;5060013;28;20035;-56
2023/01/14 03:22:50;;;;;;;550.97;242.35;;;4.00;99.90;;;;;;5056464;28;20414;-56
2023/01/14 03:25:17;;;;;;;505.00;215.73;;;4.00;99.90;;;;;;5071837;28;20029;-56
2023/01/14 03:27:47;;;;;;;500.05;215.48;;;3.90;99.90;;;;;;5071737;28;20037;-56
2023/01/14 03:30:19;;;;;;;488.05;204.10;;;4.10;99.90;;;;;;5074409;28;20040;-56
2023/01/14 03:32:50;;;;;;;452.10;190.18;;;4.20;99.90;;;;;;5076492;28;20111;-56
2023/01/14 03:35:18;;;;;;;443.48;180.77;;;4.10;99.90;;;;;;5075140;28;20055;-56
2023/01/14 03:37:50;;;;;;;402.27;173.25;;;4.00;99.90;;;;;;5076189;28;20032;-56
2023/01/14 03:40:17;;;;;;;389.52;165.30;;;4.00;99.90;;;;;;5076098;28;20059;-56
2023/01/14 03:42:48;;;;;;;357.60;151.68;;;3.90;99.90;;;;;;5076203;28;20021;-56
2023/01/14 03:45:22;;;;;;;382.20;170.23;;;3.90;99.90;;;;;;5076044;28;20111;-56
2023/01/14 03:47:48;;;;;;;390.33;164.55;;;3.90;99.90;;;;;;5076333;28;20149;-56
2023/01/14 03:50:18;;;;;;;397.90;174.18;;;3.90;99.90;;;;;;5076058;28;20028;-56
2023/01/14 03:53:01;;;;;;;445.92;191.68;;;4.00;99.90;;;;;;5075837;28;20035;-56
2023/01/14 03:55:51;;;;;;;416.88;181.02;;;4.10;99.90;;;;;;5075856;28;20052;-56
2023/01/14 03:58:23;;;;;;;;;;;4.20;99.90;;;;;;5076271;28;20025;-56
2023/01/14 04:01:03;;;;;;;319.60;143.30;;;4.20;99.90;;;;;;5075609;28;19916;-56
2023/01/14 04:03:29;;;;;;;281.35;133.35;;;4.20;99.90;;;;;;5075612;28;20035;-56
2023/01/14 04:05:55;;;;;;;221.95;107.32;;;4.20;99.90;;;;;;5075642;28;20041;-56
2023/01/14 04:08:24;;;;;;;216.30;103.63;;;4.20;99.90;;;;;;5075483;28;20479;-56
2023/01/14 04:10:51;;;;;;;227.90;109.35;;;4.20;99.90;;;;;;5075329;28;20050;-56
2023/01/14 04:16:02;;;;;;;235.57;115.68;;;4.00;99.90;;;;;;5075486;28;20035;-56
2023/01/14 04:18:28;;;;;;;228.27;111.10;;;3.80;99.90;;;;;;5071319;28;20542;-56
2023/01/14 04:20:54;;;;;;;247.02;119.57;;;3.90;99.90;;;;;;5055516;28;20029;-56
2023/01/14 04:23:20;;;;;;;268.00;122.22;;;3.90;99.90;;;;;;5055272;28;20498;-56
2023/01/14 04:25:46;;;;;;;265.77;124.18;;;3.90;99.90;;;;;;5055340;28;20060;-56
2023/01/14 04:28:12;;;;;;;306.20;135.63;;;3.80;99.90;;;;;;5055183;28;20029;-56
2023/01/14 04:30:40;;;;;;;293.30;135.57;;;4.00;99.90;;;;;;5061103;28;20074;-56
2023/01/14 04:33:06;;;;;;;293.23;133.48;;;3.90;99.90;;;;;;5074931;28;20039;-56
2023/01/14 04:35:32;;;;;;;289.65;134.23;;;3.90;99.90;;;;;;5075029;28;20052;-56
2023/01/14 04:37:57;;;;;;;338.27;151.45;;;3.80;99.90;;;;;;5075125;28;20029;-56
2023/01/14 04:40:23;;;;;;;293.88;135.05;;;3.60;99.90;;;;;;5074931;28;20478;-56
2023/01/14 04:42:50;;;;;;;287.63;132.43;;;3.80;99.90;;;;;;5074845;28;20090;-56
2023/01/14 04:45:16;;;;;;;304.15;137.75;;;4.00;99.90;;;;;;5074821;28;20090;-56
2023/01/14 04:47:42;;;;;;;316.75;147.35;;;4.10;99.90;;;;;;5074802;28;20035;-56
2023/01/14 04:50:30;;;;;;;345.27;153.75;;;4.10;99.90;;;;;;5074718;28;20080;-56
2023/01/14 04:53:16;;;;;;;342.17;154.25;;;4.00;99.90;;;;;;5074639;28;20028;-56
2023/01/14 04:55:45;;;;;;;377.95;170.98;;;4.20;99.90;;;;;;5074855;28;20017;-56
2023/01/14 04:58:13;;;;;;;367.60;167.00;;;4.30;99.90;;;;;;5074690;28;20032;-56
2023/01/14 05:00:40;;;;;;;370.10;170.73;;;4.30;99.90;;;;;;5074643;28;20032;-56
2023/01/14 05:03:08;;;;;;;397.25;174.55;;;4.20;99.90;;;;;;5074644;28;20040;-56
2023/01/14 05:05:35;;;;;;;409.10;184.93;;;4.10;99.90;;;;;;5074498;28;20028;-56
2023/01/14 05:08:03;;;;;;;400.00;182.52;;;4.20;99.90;;;;;;5074626;28;20025;-56
2023/01/14 05:10:30;;;;;;;400.95;190.85;;;4.10;99.90;;;;;;5074312;28;20040;-56
2023/01/14 05:12:56;;;;;;;377.95;176.63;;;4.10;99.90;;;;;;5074471;28;20036;-56
2023/01/14 05:15:34;;;;;;;391.42;189.52;;;4.20;99.90;;;;;;5074376;28;20079;-56
2023/01/14 05:18:00;;;;;;;381.42;183.05;;;4.20;99.90;;;;;;5074197;28;20481;-56
2023/01/14 05:20:27;;;;;;;391.38;190.52;;;4.30;99.90;;;;;;5054404;28;20060;-56
2023/01/14 05:23:04;;;;;;;371.50;182.35;;;4.40;99.90;;;;;;5054147;28;20022;-56
2023/01/14 05:25:31;;;;;;;330.80;158.77;;;4.50;99.90;;;;;;5054257;28;20467;-56
2023/01/14 05:28:06;;;;;;;331.77;159.65;;;4.50;99.90;;;;;;5054376;28;20060;-56
2023/01/14 05:30:33;;;;;;;333.83;156.77;;;4.60;99.90;;;;;;5059541;28;20434;-56
2023/01/14 05:32:59;;;;;;;306.00;142.48;;;4.60;99.90;;;;;;5074294;28;20039;-56
2023/01/14 05:35:25;;;;;;;312.00;151.80;;;4.70;99.90;;;;;;5074373;28;20028;-56
2023/01/14 05:37:51;;;;;;;315.88;151.18;;;4.60;99.90;;;;;;5074408;28;20154;-56
2023/01/14 05:40:17;;;;;;;307.08;146.00;;;4.60;99.90;;;;;;5074233;28;20256;-56
2023/01/14 05:48:12;;;;;;;274.88;133.05;;;4.50;99.90;;;;;;5074092;28;20033;-56
2023/01/14 05:50:38;;;;;;;339.40;153.40;;;4.50;99.90;;;;;;5074664;28;20025;-56
2023/01/14 05:53:06;;;;;;;394.52;178.82;;;4.60;99.90;;;;;;5074074;28;20032;-56
2023/01/14 05:55:33;;;;;;;305.55;140.57;;;4.50;99.90;;;;;;5074156;28;20466;-56
2023/01/14 05:58:04;;;;;;;276.45;135.18;;;4.50;99.90;;;;;;5074154;28;20755;-56
2023/01/14 06:08:33;;;;;;;359.30;168.93;;;4.40;99.90;;;;;;5073943;28;20032;-56
2023/01/14 06:11:00;;;;;;;343.67;156.57;;;4.30;99.90;;;;;;5073706;28;20056;-56
2023/01/14 06:13:26;;;;;;;326.38;149.80;;;4.30;99.90;;;;;;5074043;28;20033;-56
2023/01/14 06:15:52;;;;;;;294.25;142.30;;;4.30;99.90;;;;;;5073722;28;20036;-56
2023/01/14 06:18:22;;;;;;;283.95;138.88;;;4.30;99.90;;;;;;5071190;28;20506;-56
2023/01/14 06:20:50;;;;;;;255.67;125.40;;;4.50;99.90;;;;;;5054004;28;20494;-56
2023/01/14 06:23:17;;;;;;;287.30;137.88;;;4.40;99.90;;;;;;5053664;28;20268;-56
2023/01/14 06:25:45;;;;;;;276.90;131.93;;;4.40;99.90;;;;;;5053820;28;20052;-56
2023/01/14 06:28:11;;;;;;;280.75;134.82;;;4.40;99.90;;;;;;5053860;28;20025;-56
2023/01/14 06:30:37;;;;;;;266.83;131.73;;;4.40;99.90;;;;;;5059608;28;20028;-56
2023/01/14 06:33:03;;;;;;;265.98;133.70;;;4.40;99.90;;;;;;5073662;28;20016;-56
2023/01/14 06:35:29;;;;;;;314.75;149.10;;;4.30;99.90;;;;;;5074640;28;20025;-56
2023/01/14 06:37:55;;;;;;;240.13;118.28;;;4.40;99.90;;;;;;5077269;28;20036;-56
2023/01/14 06:40:21;;;;;;;224.57;110.85;;;4.40;99.90;;;;;;5077207;28;20043;-56
2023/01/14 06:42:47;;;;;;;247.88;119.45;;;4.50;99.90;;;;;;5077241;28;20438;-56
2023/01/14 06:45:12;;;;;;;217.80;108.47;;;4.50;99.90;;;;;;5077083;28;20029;-56
2023/01/14 06:47:38;;;;;;;199.30;102.45;;;4.60;99.90;;;;;;5077068;28;20055;-56
2023/01/14 06:50:06;;;;;;;213.73;104.95;;;4.70;99.90;;;;;;5077166;28;20048;-56
2023/01/14 06:52:32;;;;;;;203.23;99.15;;;4.60;99.90;;;;;;5076841;28;20024;-56
2023/01/14 06:54:58;;;;;;;216.73;111.93;;;4.60;99.90;;;;;;5076935;28;20039;-56
2023/01/14 06:57:25;;;;;;;235.38;119.10;;;4.60;99.90;;;;;;5076943;28;20082;-56
2023/01/14 06:59:52;;;;;;;205.90;104.07;;;4.50;99.90;;;;;;5076938;28;20482;-56
2023/01/14 07:02:18;;;;;;;218.15;106.25;;;4.50;99.90;;;;;;5076918;28;20043;-56
2023/01/14 07:04:44;;;;;;;239.23;115.57;;;4.50;99.90;;;;;;5076901;28;20024;-56
2023/01/14 07:07:10;;;;;;;266.13;123.05;;;4.60;99.90;;;;;;5076524;28;20457;-56
2023/01/14 07:09:37;;;;;;;272.02;132.60;;;4.70;99.90;;;;;;5076623;28;20063;-56
2023/01/14 07:12:03;;;;;;;286.83;136.65;;;4.70;99.90;;;;;;5076724;28;20028;-56
2023/01/14 07:14:29;;;;;;;287.52;140.48;;;4.60;99.90;;;;;;5076559;28;20076;-56
2023/01/14 07:16:55;;;;;;;281.77;139.52;;;4.60;99.90;;;;;;5076612;28;20119;-56
2023/01/14 07:19:21;;;;;;;281.20;140.25;;;4.50;99.90;;;;;;5065217;28;20021;-56
2023/01/14 07:21:47;;;;;;;322.35;157.32;;;4.50;99.90;;;;;;5056420;28;20044;-56
2023/01/14 07:24:13;;;;;;;301.65;151.70;;;4.50;99.90;;;;;;5056427;28;20037;-56
2023/01/14 07:26:39;;;;;;;291.65;144.40;;;4.50;99.90;;;;;;5056344;28;20041;-56
2023/01/14 07:29:05;;;;;;;323.52;158.88;;;4.60;99.90;;;;;;5056312;28;20052;-56
2023/01/14 07:31:31;;;;;;;300.63;148.73;;;4.60;99.90;;;;;;5069461;28;20119;-56
2023/01/14 07:33:57;;;;;;;326.90;159.25;;;4.60;99.90;;;;;;5076388;28;20033;-56
2023/01/14 07:36:22;;;;;;;382.45;185.63;;;4.50;99.90;;;;;;5076181;28;20029;-56
2023/01/14 07:38:48;;;;;;;347.00;178.23;;;4.60;99.90;;;;;;5076339;28;20056;-56
2023/01/14 07:41:18;;;;;;;372.35;186.73;;;4.70;99.90;;;;;;5076151;28;20584;-56
2023/01/14 07:43:48;;;;;;;385.75;189.00;;;4.80;99.90;;;;;;5076208;28;20412;-56
2023/01/14 07:46:15;;;;;;;367.95;177.20;;;4.80;99.90;;;;;;5075879;28;20386;-56
2023/01/14 07:48:42;;;;;;;431.10;224.77;;;4.70;99.90;;;;;;5075947;28;20040;-56
2023/01/14 07:51:09;;;;;;;479.65;252.90;;;4.90;99.90;;;;;;5076011;28;20040;-56
2023/01/14 07:53:35;;;;;;;514.70;271.80;;;4.80;99.90;;;;;;5075784;28;20065;-56
2023/01/14 07:56:03;;;;;;;441.67;235.25;;;4.70;99.90;;;;;;5075843;28;20021;-56
2023/01/14 07:58:29;;;;;;;429.90;219.95;;;4.60;99.90;;;;;;5075729;28;20113;-56
2023/01/14 08:00:55;;;;;;;397.33;210.82;;;4.60;99.90;;;;;;5075795;28;20032;-56
2023/01/14 08:03:22;;;;;;;409.70;216.00;;;4.70;99.90;;;;;;5075565;28;20029;-56
2023/01/14 08:05:48;;;;;;;366.38;188.73;;;4.90;99.90;;;;;;5075554;28;20356;-56
2023/01/14 08:08:14;;;;;;;364.35;185.52;;;5.00;99.90;;;;;;5075639;28;20039;-56
2023/01/14 08:10:40;;;;;;;342.77;177.13;;;4.90;99.90;;;;;;5075260;28;20059;-56
2023/01/14 08:13:10;;;;;;;337.05;172.95;;;5.00;99.90;;;;;;5075349;28;20489;-56
2023/01/14 08:15:36;;;;;;;341.13;185.90;;;5.00;99.90;;;;;;5075382;28;20020;-56
2023/01/14 08:18:02;;;;;;;318.83;159.38;;;5.00;99.90;;;;;;5074799;28;20316;-56
2023/01/14 08:20:28;;;;;;;338.65;173.20;;;5.00;99.90;;;;;;5055434;28;20028;-56
2023/01/14 08:22:58;;;;;;;367.77;183.23;;;5.00;99.90;;;;;;5055453;28;20020;-56
2023/01/14 08:25:25;;;;;;;407.60;207.30;;;5.10;99.90;;;;;;5055525;28;20436;-56
2023/01/14 08:27:51;;;;;;;326.30;170.27;;;5.10;99.90;;;;;;5055442;28;20021;-56
2023/01/14 08:30:18;;;;;;;339.52;176.77;;;5.20;99.90;;;;;;5058225;28;20030;-56
2023/01/14 08:32:44;;;;;;;344.85;172.18;;;5.30;99.90;;;;;;5057015;28;20032;-56
2023/01/14 08:35:09;;;;;;;349.05;174.15;;;5.40;99.90;;;;;;5075049;28;20090;-56
2023/01/14 08:37:36;;;;;;;321.02;162.80;;;5.50;99.90;;;;;;5075027;28;20032;-56
2023/01/14 08:40:02;;;;;;;303.67;152.50;;;5.60;99.90;;;;;;5075033;28;20078;-56
2023/01/14 08:42:29;;;;;;;287.80;147.05;;;5.60;99.90;;;;;;5075029;28;20032;-56
2023/01/14 08:44:55;;;;;;;302.38;145.93;;;5.70;99.90;;;;;;5074925;28;20040;-56
2023/01/14 08:47:21;;;;;;;360.13;183.00;;;5.80;99.90;;;;;;5074874;28;20028;-56
2023/01/14 08:49:47;;;;;;;348.20;173.73;;;5.70;99.90;;;;;;5074911;28;20029;-56
2023/01/14 08:52:12;;;;;;;359.30;177.40;;;5.80;99.90;;;;;;5074898;28;20116;-56
2023/01/14 08:54:38;;;;;;;392.25;187.73;;;5.80;99.90;;;;;;5074510;28;20044;-56
2023/01/14 08:57:04;;;;;;;419.13;195.77;;;5.90;99.90;;;;;;5074715;28;20078;-56
2023/01/14 08:59:30;;;;;;;459.92;211.15;;;5.90;99.90;;;;;;5074005;28;20028;-56
2023/01/14 09:01:56;;;;;;;490.05;225.77;;;6.00;99.90;;;;;;5074358;28;20023;-56
2023/01/14 09:04:26;;;;;;;447.48;214.52;;;6.10;99.90;;;;;;5074670;28;20039;-56
2023/01/14 09:18:00;;;;;;;321.83;149.90;;;6.20;99.90;;;;;;5074364;28;20020;-56
2023/01/14 09:20:34;;;;;;;320.73;151.63;;;6.20;99.90;;;;;;5034214;28;20021;-56
2023/01/14 09:23:03;;;;;;;342.25;156.30;;;6.20;99.90;;;;;;5034150;28;20087;-56
2023/01/14 09:25:29;;;;;;;299.77;142.18;;;6.30;99.90;;;;;;5034234;28;20111;-56
2023/01/14 09:27:55;;;;;;;289.15;138.32;;;6.50;99.90;;;;;;5034182;28;20029;-56
2023/01/14 09:30:22;;;;;;;253.43;119.88;;;6.60;99.90;;;;;;5041965;28;20478;-56
2023/01/14 09:32:48;;;;;;;244.05;116.53;;;6.70;99.90;;;;;;5074288;28;20021;-56
2023/01/14 09:35:14;;;;;;;217.38;106.05;;;6.80;99.90;;;;;;5074250;28;20035;-56
2023/01/14 09:37:40;;;;;;;223.63;105.03;;;6.80;99.90;;;;;;5074330;28;20029;-56
2023/01/14 09:40:07;;;;;;;253.77;124.43;;;7.00;99.90;;;;;;5074147;28;20094;-56
2023/01/14 09:42:42;;;;;;;193.35;96.75;;;7.10;99.90;;;;;;5074010;28;20033;-56
2023/01/14 09:45:35;;;;;;;193.23;99.68;;;7.20;99.90;;;;;;5074210;28;20397;-56
2023/01/14 09:48:11;;;;;;;189.52;94.13;;;7.20;99.90;;;;;;5074159;28;20421;-56
2023/01/14 09:51:02;;;;;;;195.15;97.47;;;7.20;99.90;;;;;;5074088;28;20113;-56
2023/01/14 09:54:05;;;;;;;214.77;106.90;;;7.20;99.90;;;;;;5074060;28;20474;-56
2023/01/14 09:56:37;;;;;;;222.70;113.88;;;7.30;99.90;;;;;;5073954;28;20020;-56
2023/01/14 09:59:16;;;;;;;243.93;117.07;;;7.40;99.90;;;;;;5074021;28;20025;-57
2023/01/14 10:01:48;;;;;;;205.63;104.95;;;7.40;99.90;;;;;;5074033;28;20051;-57
2023/01/14 10:04:42;;;;;;;194.95;97.15;;;7.50;99.90;;;;;;5073883;28;20131;-57
2023/01/14 10:07:12;;;;;;;195.57;99.35;;;7.40;99.90;;;;;;5039512;28;20116;-57
2023/01/14 10:09:47;;;;;;;195.75;98.07;;;7.50;99.90;;;;;;5074897;28;20048;-57
2023/01/14 10:12:40;;;;;;;187.82;95.45;;;7.50;99.90;;;;;;5077763;28;20389;-57
2023/01/14 10:15:18;;;;;;;178.73;90.22;;;7.60;99.90;;;;;;5077680;28;20170;-57
2023/01/14 10:17:49;;;;;;;173.20;88.95;;;7.70;99.90;;;;;;5077504;28;20127;-57
2023/01/14 10:20:22;;;;;;;173.27;87.78;;;7.70;99.90;;;;;;5059147;28;20355;-57
2023/01/14 10:22:56;;;;;;;156.10;81.22;;;7.80;99.90;;;;;;5057612;28;20053;-57
2023/01/14 10:25:23;;;;;;;145.93;74.32;;;7.80;99.90;;;;;;5057573;28;20044;-57
2023/01/14 10:27:56;;;;;;;145.10;70.70;;;7.80;99.90;;;;;;5057664;28;20488;-58
2023/01/14 10:30:33;;;;;;;137.30;68.82;;;7.90;99.90;;;;;;5061129;28;20478;-57
2023/01/14 10:33:04;;;;;;;137.40;65.20;;;7.90;99.90;;;;;;5077349;28;20111;-57
2023/01/14 10:35:38;;;;;;;110.93;56.20;;;7.90;99.90;;;;;;5077248;28;20116;-57
2023/01/14 10:38:05;;;;;;;113.90;55.55;;;7.80;99.90;;;;;;5077298;28;20082;-57
2023/01/14 10:40:32;;;;;;;91.75;48.25;;;7.70;99.90;;;;;;5077237;28;20367;-57
2023/01/14 10:43:00;;;;;;;103.47;52.92;;;7.70;99.90;;;;;;5077328;28;20374;-57
2023/01/14 10:45:27;;;;;;;91.32;49.45;;;7.60;99.90;;;;;;5077229;28;20355;-57
2023/01/14 10:48:04;;;;;;;95.03;46.70;;;7.60;99.90;;;;;;5077140;28;20039;-57
2023/01/14 10:50:31;;;;;;;94.63;46.55;;;7.60;99.90;;;;;;5077075;28;20020;-57
2023/01/14 10:53:23;;;;;;;87.40;46.80;;;7.60;99.90;;;;;;5076999;28;20470;-57
2023/01/14 10:55:58;;;;;;;91.95;47.08;;;7.60;99.90;;;;;;5077159;28;20166;-57
2023/01/14 10:58:34;;;;;;;93.97;48.63;;;7.60;99.90;;;;;;5076839;28;20035;-57
2023/01/14 11:01:05;;;;;;;79.45;43.25;;;7.60;99.90;;;;;;5076977;28;20553;-57
2023/01/14 11:03:48;;;;;;;77.72;41.63;;;7.60;99.90;;;;;;5076950;28;20028;-57
2023/01/14 11:06:16;;;;;;;78.65;42.83;;;7.70;99.90;;;;;;5077033;28;20040;-57
2023/01/14 11:08:50;;;;;;;81.65;41.45;;;7.70;99.90;;;;;;5076825;28;20081;-57
2023/01/14 11:11:20;;;;;;;59.60;32.45;;;7.80;99.90;;;;;;5076615;28;20044;-57
2023/01/14 11:13:53;;;;;;;54.10;29.45;;;7.90;99.90;;;;;;5076520;28;20035;-57
2023/01/14 11:16:21;;;;;;;57.80;31.38;;;8.00;99.90;;;;;;5076695;28;20064;-58
2023/01/14 11:18:55;;;;;;;61.00;33.20;;;8.10;99.90;;;;;;5070150;28;20025;-57
2023/01/14 11:21:22;;;;;;;64.90;33.85;;;8.30;99.90;;;;;;5055920;28;20029;-57
2023/01/14 11:24:01;;;;;;;73.28;36.53;;;8.40;99.90;;;;;;5056507;28;20025;-57
2023/01/14 11:26:39;;;;;;;80.28;38.63;;;8.50;99.90;;;;;;5056433;28;20108;-57
2023/01/14 11:29:18;;;;;;;77.47;37.25;;;8.60;99.90;;;;;;5056066;28;20498;-57
2023/01/14 11:31:47;;;;;;;62.65;33.80;;;8.80;99.90;;;;;;5071550;28;20036;-57
2023/01/14 11:34:34;;;;;;;51.55;26.45;;;8.90;99.90;;;;;;5076261;28;20059;-58
2023/01/14 11:37:16;;;;;;;72.78;33.72;;;9.00;99.90;;;;;;5076251;28;20025;-58
2023/01/14 11:39:47;;;;;;;49.80;26.13;;;9.10;99.90;;;;;;5076263;28;20032;-58
2023/01/14 11:42:22;;;;;;;57.30;28.23;;;9.30;99.90;;;;;;5075954;28;20040;-58
2023/01/14 11:44:59;;;;;;;53.28;25.35;;;9.40;99.90;;;;;;5076146;28;20029;-58
2023/01/14 11:47:26;;;;;;;43.13;22.73;;;9.50;99.90;;;;;;5075900;28;20127;-57
2023/01/14 11:50:14;;;;;;;48.13;24.92;;;9.50;99.90;;;;;;5076022;28;20036;-58
2023/01/14 11:52:41;;;;;;;56.20;27.95;;;9.50;99.90;;;;;;5074644;28;20036;-58
2023/01/14 11:55:16;;;;;;;52.13;26.02;;;9.60;99.90;;;;;;5075884;28;20474;-58
2023/01/14 11:57:43;;;;;;;46.15;22.75;;;9.60;99.90;;;;;;5076094;28;20017;-58
2023/01/14 12:00:11;;;;;;;31.85;16.90;;;9.70;99.90;;;;;;5075752;28;20044;-58
2023/01/14 12:02:41;;;;;;;38.70;18.73;;;10.00;99.90;;;;;;5075883;28;20021;-58
2023/01/14 12:05:16;;;;;;;30.38;16.92;;;10.60;99.90;;;;;;5075401;28;20029;-58
2023/01/14 12:07:55;;;;;;;25.83;15.50;;;11.00;99.90;;;;;;5075649;28;20098;-58
2023/01/14 12:10:42;;;;;;;34.75;16.40;;;11.20;99.90;;;;;;5075679;28;20048;-58
2023/01/14 12:19:14;;;;;;;33.83;17.98;;;11.00;99.90;;;;;;5065860;28;20059;-58
2023/01/14 12:21:49;;;;;;;39.65;19.00;;;11.00;99.90;;;;;;5055305;28;20053;-58
2023/01/14 12:24:45;;;;;;;40.40;19.73;;;10.90;99.90;;;;;;5055296;28;20434;-58
2023/01/14 12:27:42;;;;;;;37.72;19.80;;;10.90;99.90;;;;;;5070697;28;20033;-58
2023/01/14 12:30:18;;;;;;;46.50;21.45;;;10.90;99.90;;;;;;5048711;28;20071;-58
2023/01/14 12:33:13;;;;;;;48.13;22.27;;;10.70;99.90;;;;;;5074439;28;20037;-58
2023/01/14 12:36:14;;;;;;;43.20;21.20;;;10.70;99.90;;;;;;5040719;28;20055;-58
2023/01/14 12:47:44;;;;;;;46.47;23.67;;;11.10;99.90;;;;;;5074882;28;20021;-58
2023/01/14 12:50:12;;;;;;;49.28;27.45;;;11.10;99.90;;;;;;5075122;28;20029;-58
2023/01/14 12:52:46;;;;;;;41.42;21.85;;;11.00;99.90;;;;;;5074814;28;20424;-58
2023/01/14 12:55:29;;;;;;;32.55;18.90;;;10.80;99.90;;;;;;5074727;28;20060;-58
2023/01/14 12:57:58;;;;;;;33.22;18.77;;;10.80;99.90;;;;;;5074749;28;20085;-58
2023/01/14 13:00:28;;;;;;;34.13;17.67;;;10.80;99.90;;;;;;5074620;28;20103;-58
2023/01/14 13:02:56;;;;;;;27.40;16.15;;;10.70;99.90;;;;;;5074706;28;20025;-58
2023/01/14 13:05:34;;;;;;;27.30;17.05;;;10.50;99.90;;;;;;5074531;28;20032;-58
2023/01/14 13:08:03;;;;;;;32.03;17.15;;;10.40;99.90;;;;;;5074611;28;20107;-58
2023/01/14 13:10:30;;;;;;;29.88;16.92;;;10.40;99.90;;;;;;5074489;28;20052;-58
2023/01/14 13:12:57;;;;;;;48.85;27.17;;;10.00;99.90;;;;;;5074493;28;20413;-58
2023/01/14 13:15:26;;;;;;;38.42;23.10;;;10.20;99.90;;;;;;5074483;28;20485;-58
2023/01/14 13:17:55;;;;;;;35.70;19.85;;;10.50;99.90;;;;;;5074330;28;20060;-58
2023/01/14 13:20:35;;;;;;;32.90;18.75;;;10.90;99.90;;;;;;5054913;28;20107;-58
2023/01/14 13:23:03;;;;;;;32.85;16.58;;;11.50;99.90;;;;;;5054339;28;20132;-58
2023/01/14 13:25:43;;;;;;;35.45;16.63;;;11.80;99.90;;;;;;5054392;28;20067;-58
2023/01/14 13:28:12;;;;;;;38.80;17.83;;;12.00;99.90;;;;;;5054543;28;20086;-58
2023/01/14 13:30:44;;;;;;;31.67;15.93;;;12.50;98.00;;;;;;5060076;28;20027;-58